Weather observations for the past three days for
Watertown, Watertown Municipal Airport
Imperial (Metric)
Date Time (cdt) Wind (mph) Vis. (mi.) Weather Sky Cond. Temperature (ºF) Relative Humidity Wind Chill (°F) Heat Index (°F) Pressure Precipitation (in)
Air Dwpt 6 hour altimeter (in) sea level (mb) 1 hr 3 hr 6 hr
Max. Min.
10 08:53 NE 14 10.00 Fair CLR 48 28.9 48% 43 30.14 1021.6
10 07:53 N 6 10.00 Fair CLR 42.1 33.1 71% 39 30.13 1020.9
10 06:53 Calm 10.00 Fair CLR 36 30 42.1 33.1 79% 30.09 1019.9
10 05:53 Calm 10.00 Fair CLR 37 32 82% 30.08 1019.3
10 04:53 SW 7 10.00 Fair CLR 34 30 85% 29 30.06 1018.9
10 03:53 S 3 10.00 Fair CLR 35.1 28.9 78% 30.05 1018.6
10 02:53 NE 3 10.00 Fair CLR 36 28.9 76% 30.05 1018.4
10 01:53 Calm 10.00 Fair CLR 37.9 30 73% 30.04 1018.1
10 00:53 Calm 10.00 Fair CLR 39 27 55.9 39 62% 30.04 1018.0
09 23:53 Calm 10.00 Fair CLR 41 27 57% 30.02 1017.6
09 22:53 Calm 10.00 Fair CLR 45 26.1 48% 30.02 1017.1
09 21:53 Calm 10.00 Fair CLR 46 27 47% 30.01 1017.0
09 20:53 N 7 10.00 Fair CLR 46 26.1 46% 43 29.98 1016.1
09 19:53 N 12 10.00 Fair CLR 54 26.1 34% 29.97 1015.4
09 18:53 N 17 10.00 Fair CLR 55.9 26.1 57 54 32% 29.95 1014.8
09 17:53 N 13 G 22 10.00 Fair CLR 57 26.1 30% 29.94 1014.3
09 16:53 N 21 G 28 10.00 Fair and Breezy CLR 57 27 32% 29.94 1014.1
09 15:53 N 18 G 28 10.00 Fair CLR 57 28.9 34% 29.94 1014.2
09 14:53 NW 20 G 26 10.00 Fair CLR 55 28 36% 29.94 1014.2
09 13:53 N 18 G 29 10.00 Fair CLR 55 28 36% 29.92 1013.8
09 12:53 N 15 G 31 10.00 Fair CLR 54 27 55 44.1 35% 29.91 1013.2
09 11:53 N 16 10.00 A Few Clouds FEW050 53.1 28.9 40% 29.9 1013.0
09 10:53 N 15 10.00 Fair CLR 52 28.9 41% 29.88 1012.3
09 09:53 N 15 10.00 Partly Cloudy SCT027 48 36 63% 43 29.85 1011.5
09 08:53 N 14 10.00 Partly Cloudy SCT014 46.9 41 80% 42 29.83 1010.3
09 07:53 N 13 10.00 Overcast OVC015 45 39.9 83% 39 29.8 1009.4
09 06:53 N 14 10.00 Fair CLR 45 41 55 45 86% 39 29.77 1008.3 0.02
09 05:53 NW 12 10.00 Partly Cloudy FEW021 SCT110 48 44.1 86% 44 29.73 1006.6 0.01
09 04:53 NW 10 9.00 Rain BKN055 OVC075 48.9 44.1 83% 45 29.71 1005.9 0.01
09 03:53 N 7 10.00 Overcast FEW070 BKN085 OVC100 46.9 42.1 83% 44 29.72 1006.2
09 02:53 N 16 G 28 10.00 A Few Clouds FEW100 48 42.1 80% 42 29.7 1005.7
09 01:53 SW 9 10.00 Fair CLR 48.9 33.1 55% 45 29.62 1002.9
09 00:53 SW 12 10.00 Fair CLR 48.9 32 64.9 46 52% 45 29.63 1003.2
08 23:53 SW 12 10.00 Fair CLR 48.9 33.1 55% 45 29.65 1003.9
08 22:53 SW 8 10.00 Fair CLR 46.9 36 66% 44 29.67 1004.9
08 21:53 SW 6 10.00 Fair CLR 52 32 47% 29.69 1005.3
08 20:53 NW 5 10.00 Fair CLR 57 32 39% 29.69 1005.5
08 19:53 NW 14 10.00 Fair CLR 62.1 30 30% 29.69 1005.7
08 18:53 N 17 G 24 10.00 Fair CLR 64.9 30.9 71.1 64.9 28% 29.7 1006.0
08 17:53 N 20 G 31 10.00 Fair CLR 66.9 28 23% 29.69 1005.7
08 16:53 NW 21 G 33 10.00 Fair and Breezy CLR 68 27 21% 29.69 1005.4
08 15:53 NW 21 G 30 10.00 Partly Cloudy and Breezy SCT090 70 33.1 26% 29.68 1004.9
08 14:53 NW 18 G 29 10.00 A Few Clouds FEW090 70 33.1 26% 29.68 1005.0
08 13:53 NW 21 G 28 10.00 Partly Cloudy and Breezy SCT085 68 32 26% 29.69 1005.6
08 12:53 NW 14 G 21 10.00 Mostly Cloudy BKN090 66.9 30 66.9 37 25% 29.7 1006.1
08 11:53 NW 14 10.00 Mostly Cloudy BKN100 64.9 30 27% 29.72 1006.6
08 10:53 W 14 10.00 A Few Clouds FEW120 64.9 28.9 26% 29.73 1006.9
08 09:53 W 14 G 21 10.00 Fair CLR 62.1 28 28% 29.74 1007.2
08 08:53 SW 7 10.00 Fair CLR 54 33.1 45% 29.75 1007.8
08 07:53 S 6 10.00 Fair CLR 45 30 56% 42 29.76 1008.4
08 06:53 Calm 10.00 Fair CLR 37.9 28 43 36 68% 29.76 1008.3
08 05:53 Calm 10.00 Mostly Cloudy SCT090 BKN120 39 28.9 67% 29.76 1008.4
08 04:53 Calm 10.00 Overcast OVC090 39 28.9 67% 29.77 1008.6
08 03:53 SE 3 10.00 Fair CLR 41 28 60% 29.76 1008.3
08 02:53 SE 5 10.00 Fair CLR 42.1 28 58% 40 29.77 1008.6
08 01:53 S 5 10.00 Fair CLR 42.1 27 55% 40 29.78 1009.0
08 00:53 S 5 10.00 Fair CLR 41 28 59 41 60% 38 29.79 1009.4
07 23:53 S 5 10.00 Fair CLR 44.1 30.9 60% 42 29.79 1009.5
07 22:53 S 5 10.00 Fair CLR 46 32 58% 44 29.81 1009.8
07 21:53 Calm 10.00 Fair CLR 50 23 35% 29.81 1010.0
07 20:53 W 3 10.00 Fair CLR 54 18 24% 29.79 1009.6
07 19:53 NW 6 10.00 Fair CLR 55.9 21 26% 29.79 1009.5
07 18:53 NW 10 10.00 Fair CLR 59 19.9 60.1 54 22% 29.79 1009.7
07 17:53 NW 12 G 17 10.00 Fair CLR 60.1 21 22% 29.8 1009.9
07 16:53 NW 8 10.00 Fair CLR 60.1 21 22% 29.81 1010.1
07 15:53 NW 8 10.00 Fair CLR 60.1 19.9 21% 29.82 1010.3
07 14:53 NW 5 G 22 10.00 Fair CLR 57.9 21 24% 29.84 1011.0
07 13:53 W 8 10.00 Fair CLR 55.9 23 28% 29.84 1011.3
07 12:53 N 8 10.00 Fair CLR 55 21 55 30 26% 29.86 1012.0
07 11:53 NW 6 10.00 Fair CLR 53.1 21.9 30% 29.87 1012.3
07 10:53 NW 7 10.00 Fair CLR 51.1 21.9 32% 29.88 1012.6
Date Time (cdt) Wind (mph) Vis. (mi.) Weather Sky Cond. Air Dwpt Max. Min. Relative Humidity Wind Chill (°F) Heat Index (°F) altimeter (in) sea level (mb) 1 hr 3 hr 6 hr
6 hour
Temperature (ºF) Pressure Precipitation (in)